createdAt,value
2023-04-18T00:01:09.910Z,7.29
2023-04-18T00:03:40.905Z,7.28
2023-04-18T00:06:11.574Z,7.31
2023-04-18T00:08:40.022Z,7.28
2023-04-18T00:11:08.596Z,7.29
2023-04-18T00:13:38.678Z,7.28
2023-04-18T00:16:08.740Z,7.30
2023-04-18T00:18:37.821Z,7.24
2023-04-18T00:21:07.014Z,7.27
2023-04-18T00:23:35.464Z,7.24
2023-04-18T00:26:03.474Z,7.24
2023-04-18T00:28:31.513Z,7.21
2023-04-18T00:30:59.636Z,7.23
2023-04-18T00:33:27.663Z,7.26
2023-04-18T00:35:55.722Z,7.23
2023-04-18T00:38:23.669Z,7.25
2023-04-18T00:40:51.727Z,7.27
2023-04-18T00:43:23.313Z,7.26
2023-04-18T00:45:51.445Z,7.24
2023-04-18T00:48:19.479Z,7.24
2023-04-18T00:50:47.442Z,7.24
2023-04-18T00:53:15.596Z,7.24
2023-04-18T00:55:44.307Z,7.22
2023-04-18T00:58:12.602Z,7.25
2023-04-18T01:00:41.057Z,7.24
2023-04-18T01:03:11.010Z,7.23
2023-04-18T01:05:39.836Z,7.22
2023-04-18T01:08:10.843Z,7.20
2023-04-18T01:10:39.071Z,7.21
2023-04-18T01:13:14.467Z,7.22
2023-04-18T01:15:43.381Z,7.29
2023-04-18T01:18:12.016Z,7.30
2023-04-18T01:20:46.799Z,7.35
2023-04-18T01:23:15.762Z,7.33
2023-04-18T01:25:44.285Z,7.33
2023-04-18T01:28:14.097Z,7.34
2023-04-18T01:30:42.384Z,7.35
2023-04-18T01:33:11.607Z,7.37
2023-04-18T01:35:39.572Z,7.37
2023-04-18T01:38:07.550Z,7.36
2023-04-18T01:40:35.867Z,7.43
2023-04-18T01:43:03.924Z,7.38
2023-04-18T01:45:32.397Z,7.38
2023-04-18T01:48:00.399Z,7.42
2023-04-18T01:50:28.500Z,7.40
2023-04-18T01:52:56.636Z,7.41
2023-04-18T01:55:24.609Z,7.43
2023-04-18T01:57:55.927Z,7.41
2023-04-18T02:00:23.920Z,7.40
2023-04-18T02:02:52.458Z,7.42
2023-04-18T02:05:22.434Z,7.40
2023-04-18T02:07:50.854Z,7.42
2023-04-18T02:10:19.393Z,7.38
2023-04-18T02:12:47.566Z,7.35
2023-04-18T02:15:15.761Z,7.31
2023-04-18T02:17:43.768Z,7.26
2023-04-18T02:20:11.748Z,7.16
2023-04-18T02:22:39.784Z,7.11
2023-04-18T02:25:08.419Z,7.05
2023-04-18T02:27:36.616Z,7.01
2023-04-18T02:30:05.043Z,6.94
2023-04-18T02:32:35.446Z,6.90
2023-04-18T02:35:03.697Z,6.87
2023-04-18T02:37:31.648Z,6.81
2023-04-18T02:39:59.661Z,6.75
2023-04-18T02:42:31.603Z,6.69
2023-04-18T02:44:59.610Z,6.64
2023-04-18T02:47:28.111Z,6.61
2023-04-18T02:49:56.267Z,6.58
2023-04-18T02:52:25.618Z,6.54
2023-04-18T02:54:54.410Z,6.52
2023-04-18T02:57:26.183Z,6.48
2023-04-18T03:00:16.118Z,6.47
2023-04-18T03:02:58.582Z,6.45
2023-04-18T03:05:46.850Z,6.43
2023-04-18T03:08:15.181Z,6.41
2023-04-18T03:10:43.349Z,6.47
2023-04-18T03:13:11.876Z,6.52
2023-04-18T03:15:40.194Z,6.57
2023-04-18T03:18:09.450Z,6.62
2023-04-18T03:20:39.222Z,6.64
2023-04-18T03:23:08.388Z,6.64
2023-04-18T03:25:36.506Z,6.71
2023-04-18T03:28:05.330Z,6.78
2023-04-18T03:30:33.578Z,6.80
2023-04-18T03:33:03.151Z,6.84
2023-04-18T03:35:31.741Z,6.90
2023-04-18T03:37:59.824Z,6.97
2023-04-18T03:40:33.097Z,6.97
2023-04-18T03:43:06.276Z,6.98
2023-04-18T03:45:34.357Z,7.06
2023-04-18T03:48:02.607Z,7.04
2023-04-18T03:50:32.498Z,7.10
2023-04-18T03:53:02.059Z,7.11
2023-04-18T03:55:33.338Z,7.11
2023-04-18T03:58:02.310Z,7.13
2023-04-18T04:00:30.977Z,7.15
2023-04-18T04:03:02.086Z,7.16
2023-04-18T04:05:30.562Z,7.21
2023-04-18T04:07:58.578Z,7.22
2023-04-18T04:10:26.785Z,7.21
2023-04-18T04:12:54.959Z,7.19
2023-04-18T04:15:23.279Z,7.25
2023-04-18T04:17:56.370Z,7.28
2023-04-18T04:20:25.917Z,7.32
2023-04-18T04:23:01.515Z,7.30
2023-04-18T04:25:29.972Z,7.36
2023-04-18T04:28:02.104Z,7.36
2023-04-18T04:30:30.667Z,7.36
2023-04-18T04:33:02.059Z,7.39
2023-04-18T04:35:32.920Z,7.45
2023-04-18T04:38:02.176Z,7.48
2023-04-18T04:40:40.172Z,7.53
2023-04-18T04:43:17.572Z,7.53
2023-04-18T04:45:53.284Z,7.59
2023-04-18T04:48:25.542Z,7.64
2023-04-18T04:50:59.924Z,7.62
2023-04-18T04:53:32.016Z,7.71
2023-04-18T04:56:02.592Z,7.77
2023-04-18T04:58:33.960Z,7.76
2023-04-18T05:01:08.060Z,7.78
2023-04-18T05:03:38.073Z,7.79
2023-04-18T05:06:07.696Z,7.88
2023-04-18T05:08:36.573Z,7.93
2023-04-18T05:11:06.763Z,7.98
2023-04-18T05:13:36.343Z,8.00
2023-04-18T05:16:05.438Z,8.07
2023-04-18T05:18:42.289Z,8.17
2023-04-18T05:21:21.115Z,8.16
2023-04-18T05:23:50.122Z,8.23
2023-04-18T05:26:23.540Z,8.32
2023-04-18T05:28:53.003Z,8.35
2023-04-18T05:31:24.445Z,8.35
2023-04-18T05:33:54.690Z,8.46
2023-04-18T05:36:22.764Z,8.45
2023-04-18T05:38:51.126Z,8.48
2023-04-18T05:41:19.176Z,8.52
2023-04-18T05:44:01.923Z,8.54
2023-04-18T05:46:36.269Z,8.54
2023-04-18T05:49:04.466Z,8.62
2023-04-18T05:51:32.863Z,8.60
2023-04-18T05:54:07.404Z,8.59
2023-04-18T05:56:40.650Z,8.67
2023-04-18T05:59:08.831Z,8.64
2023-04-18T06:01:36.795Z,8.70
2023-04-18T06:04:05.067Z,8.73
2023-04-18T06:06:33.385Z,8.75
2023-04-18T06:09:01.435Z,8.80
2023-04-18T06:11:35.719Z,8.87
2023-04-18T06:14:03.803Z,8.91
2023-04-18T06:16:40.599Z,8.92
2023-04-18T06:19:11.244Z,9.04
2023-04-18T06:21:42.961Z,9.08
2023-04-18T06:24:11.210Z,9.12
2023-04-18T06:26:39.227Z,9.22
2023-04-18T06:29:07.292Z,9.22
2023-04-18T06:31:35.468Z,9.34
2023-04-18T06:34:03.568Z,9.42
2023-04-18T06:36:31.709Z,9.48
2023-04-18T06:38:59.665Z,9.60
2023-04-18T06:41:27.740Z,9.61
2023-04-18T06:44:03.375Z,9.64
2023-04-18T06:46:33.266Z,9.65
2023-04-18T06:49:01.251Z,9.72
2023-04-18T06:51:29.343Z,9.70
2023-04-18T06:53:57.342Z,9.74
2023-04-18T06:56:25.463Z,9.89
2023-04-18T06:58:53.452Z,10.01
2023-04-18T07:01:21.536Z,10.04
2023-04-18T07:03:49.601Z,10.20
2023-04-18T07:06:17.856Z,10.21
2023-04-18T07:08:45.883Z,10.43
2023-04-18T07:11:13.900Z,10.51
2023-04-18T07:13:41.913Z,10.55
2023-04-18T07:16:09.875Z,10.58
2023-04-18T07:18:38.732Z,10.72
2023-04-18T07:21:09.874Z,10.66
2023-04-18T07:23:38.693Z,10.73
2023-04-18T07:26:06.809Z,10.86
2023-04-18T07:28:34.985Z,10.95
2023-04-18T07:31:07.451Z,11.04
2023-04-18T07:33:36.817Z,11.05
2023-04-18T07:39:07.034Z,10.95
2023-04-18T07:41:35.445Z,11.13
2023-04-18T07:44:03.487Z,11.25
2023-04-18T07:46:32.646Z,11.27
2023-04-18T07:49:02.628Z,11.14
2023-04-18T07:51:34.589Z,11.39
2023-04-18T07:54:03.172Z,11.44
2023-04-18T07:56:31.194Z,11.47
2023-04-18T07:58:59.236Z,11.47
2023-04-18T08:01:27.791Z,11.67
2023-04-18T08:03:58.064Z,11.88
2023-04-18T08:06:27.192Z,12.06
2023-04-18T08:08:55.116Z,12.16
2023-04-18T08:11:23.589Z,12.12
2023-04-18T08:13:51.688Z,12.22
2023-04-18T08:16:21.398Z,12.50
2023-04-18T08:18:49.641Z,12.69
2023-04-18T08:21:19.546Z,12.78
2023-04-18T08:23:48.854Z,12.90
2023-04-18T08:26:17.347Z,12.91
2023-04-18T08:28:46.554Z,12.96
2023-04-18T08:31:15.570Z,13.02
2023-04-18T08:33:43.700Z,13.24
2023-04-18T08:36:12.228Z,13.29
2023-04-18T08:38:40.246Z,13.31
2023-04-18T08:41:08.676Z,13.56
2023-04-18T08:43:37.752Z,13.67
2023-04-18T08:46:05.831Z,13.69
2023-04-18T08:48:33.773Z,13.68
2023-04-18T08:51:02.455Z,13.87
2023-04-18T08:53:32.839Z,13.69
2023-04-18T08:56:01.664Z,13.91
2023-04-18T08:58:32.504Z,14.09
2023-04-18T09:01:01.132Z,14.02
2023-04-18T09:03:37.894Z,13.73
2023-04-18T09:06:19.238Z,14.09
2023-04-18T09:08:59.295Z,14.40
2023-04-18T09:11:31.900Z,14.56
2023-04-18T09:14:00.144Z,14.38
2023-04-18T09:16:28.282Z,14.45
2023-04-18T09:19:13.595Z,14.78
2023-04-18T09:21:44.693Z,14.60
2023-04-18T09:24:24.427Z,14.48
2023-04-18T09:26:57.111Z,14.38
2023-04-18T09:29:50.326Z,14.46
2023-04-18T09:32:29.694Z,14.63
2023-04-18T09:35:04.589Z,14.54
2023-04-18T09:37:33.283Z,14.69
2023-04-18T09:40:01.449Z,14.45
2023-04-18T09:42:31.425Z,14.77
2023-04-18T09:45:06.379Z,14.75
2023-04-18T09:47:35.443Z,14.92
2023-04-18T09:50:04.895Z,14.89
2023-04-18T09:52:36.307Z,15.00
2023-04-18T09:55:08.269Z,15.22
2023-04-18T09:57:37.070Z,15.11
2023-04-18T10:00:14.176Z,15.00
2023-04-18T10:03:21.463Z,15.44
2023-04-18T10:05:49.726Z,15.48
2023-04-18T10:08:17.801Z,15.46
2023-04-18T10:10:46.302Z,15.62
2023-04-18T10:13:14.485Z,15.43
2023-04-18T10:15:44.103Z,15.32
2023-04-18T10:18:16.508Z,15.39
2023-04-18T10:20:46.478Z,15.73
2023-04-18T10:23:36.333Z,15.83
2023-04-18T10:26:05.786Z,15.75
2023-04-18T10:29:01.197Z,15.85
2023-04-18T10:31:29.409Z,15.80
2023-04-18T10:36:31.118Z,16.09
2023-04-18T10:39:21.639Z,16.26
2023-04-18T10:41:51.198Z,16.15
2023-04-18T10:44:22.032Z,15.99
2023-04-18T10:46:53.074Z,16.17
2023-04-18T10:49:24.569Z,16.10
2023-04-18T10:52:01.846Z,16.09
2023-04-18T10:54:31.100Z,15.83
2023-04-18T10:57:00.236Z,15.92
2023-04-18T10:59:28.186Z,15.80
2023-04-18T11:01:59.875Z,15.77
2023-04-18T11:04:28.851Z,15.79
2023-04-18T11:06:58.623Z,15.76
2023-04-18T11:09:26.675Z,15.55
2023-04-18T11:12:09.863Z,15.28
2023-04-18T11:14:47.262Z,15.21
2023-04-18T11:17:26.294Z,15.34
2023-04-18T11:20:14.113Z,15.59
2023-04-18T11:22:51.828Z,16.26
2023-04-18T11:25:30.984Z,16.80
2023-04-18T11:28:00.251Z,17.03
2023-04-18T11:30:37.794Z,17.11
2023-04-18T11:33:14.773Z,17.13
2023-04-18T11:35:46.179Z,17.23
2023-04-18T11:38:15.101Z,17.37
2023-04-18T11:40:49.855Z,17.04
2023-04-18T11:43:22.440Z,17.18
2023-04-18T11:45:57.818Z,16.98
2023-04-18T11:48:39.184Z,17.27
2023-04-18T11:51:08.610Z,17.52
2023-04-18T11:53:38.584Z,17.56
2023-04-18T11:56:07.122Z,17.67
2023-04-18T11:58:36.454Z,17.54
2023-04-18T12:01:23.825Z,17.30
2023-04-18T12:04:02.484Z,17.46
2023-04-18T12:06:50.172Z,17.69
2023-04-18T12:09:18.522Z,17.52
2023-04-18T12:12:01.219Z,17.61
2023-04-18T12:14:29.677Z,17.20
2023-04-18T12:16:57.714Z,17.40
2023-04-18T12:19:29.561Z,17.47
2023-04-18T12:22:01.296Z,17.28
2023-04-18T12:24:30.071Z,17.20
2023-04-18T12:27:01.165Z,17.27
2023-04-18T12:29:29.278Z,17.12
2023-04-18T12:31:57.489Z,16.71
2023-04-18T12:34:25.501Z,16.77
2023-04-18T12:36:54.036Z,17.07
2023-04-18T12:39:22.202Z,17.07
2023-04-18T12:41:53.116Z,17.03
2023-04-18T12:44:21.480Z,17.15
2023-04-18T12:46:49.690Z,17.28
2023-04-18T12:49:17.920Z,17.26
2023-04-18T12:51:46.135Z,17.25
2023-04-18T12:54:14.587Z,17.16
2023-04-18T12:56:42.794Z,17.31
2023-04-18T12:59:10.842Z,17.24
2023-04-18T13:01:39.031Z,17.52
2023-04-18T13:04:12.465Z,17.74
2023-04-18T13:06:59.057Z,17.95
2023-04-18T13:09:27.561Z,18.40
2023-04-18T13:11:56.457Z,17.91
2023-04-18T13:14:24.471Z,17.33
2023-04-18T13:16:52.911Z,17.27
2023-04-18T13:19:21.006Z,17.13
2023-04-18T13:21:53.063Z,17.31
2023-04-18T13:24:21.466Z,17.67
2023-04-18T13:26:52.386Z,17.60
2023-04-18T13:29:20.763Z,17.87
2023-04-18T13:31:48.935Z,17.53
2023-04-18T13:34:17.167Z,17.48
2023-04-18T13:36:46.466Z,17.58
2023-04-18T13:39:15.375Z,18.05
2023-04-18T13:41:45.460Z,18.48
2023-04-18T13:44:13.561Z,18.66
2023-04-18T13:46:42.455Z,19.00
2023-04-18T13:49:10.896Z,18.86
2023-04-18T13:51:41.919Z,18.56
2023-04-18T13:54:14.909Z,18.41
2023-04-18T13:56:44.558Z,18.27
2023-04-18T13:59:13.344Z,17.90
2023-04-18T14:01:42.902Z,17.46
2023-04-18T14:04:11.359Z,17.09
2023-04-18T14:06:39.650Z,17.02
2023-04-18T14:09:08.260Z,16.93
2023-04-18T14:11:36.352Z,16.78
2023-04-18T14:14:04.556Z,16.56
2023-04-18T14:16:51.886Z,16.37
2023-04-18T14:19:20.046Z,16.28
2023-04-18T14:21:48.700Z,16.25
2023-04-18T14:24:17.514Z,16.23
2023-04-18T14:26:46.289Z,16.10
2023-04-18T14:29:18.207Z,16.04
2023-04-18T14:31:47.289Z,15.92
2023-04-18T14:34:16.329Z,15.80
2023-04-18T14:36:48.709Z,15.79
2023-04-18T14:39:18.390Z,15.97
2023-04-18T14:41:47.562Z,16.37
2023-04-18T14:44:28.579Z,16.30
2023-04-18T14:47:00.535Z,16.22
2023-04-18T14:49:29.466Z,16.27
2023-04-18T14:51:58.704Z,16.18
2023-04-18T14:54:30.484Z,16.19
2023-04-18T14:57:08.064Z,16.12
2023-04-18T14:59:36.840Z,16.19
2023-04-18T15:02:05.349Z,16.38
2023-04-18T15:04:34.050Z,16.68
2023-04-18T15:07:05.544Z,17.00
2023-04-18T15:09:37.762Z,17.13
2023-04-18T15:12:06.440Z,17.30
2023-04-18T15:14:36.307Z,16.99
2023-04-18T15:17:05.796Z,16.88
2023-04-18T15:19:36.605Z,17.00
2023-04-18T15:22:05.663Z,16.61
2023-04-18T15:24:38.461Z,15.93
2023-04-18T15:27:07.954Z,15.66
2023-04-18T15:29:42.153Z,15.39
2023-04-18T15:32:16.728Z,15.11
2023-04-18T15:34:53.220Z,14.81
2023-04-18T15:37:28.169Z,14.68
2023-04-18T15:39:57.240Z,14.59
2023-04-18T15:42:27.451Z,14.41
2023-04-18T15:45:03.259Z,14.33
2023-04-18T15:47:34.961Z,14.33
2023-04-18T15:50:04.558Z,14.27
2023-04-18T15:52:40.557Z,14.26
2023-04-18T15:55:16.660Z,14.29
2023-04-18T15:57:53.270Z,14.35
2023-04-18T16:00:27.170Z,14.39
2023-04-18T16:03:07.700Z,14.42
2023-04-18T16:05:38.272Z,14.41
2023-04-18T16:08:08.940Z,14.31
2023-04-18T16:10:40.356Z,14.22
2023-04-18T16:13:12.667Z,14.13
2023-04-18T16:18:31.977Z,14.07
2023-04-18T16:21:02.668Z,13.94
2023-04-18T16:23:35.612Z,13.80
2023-04-18T16:26:09.584Z,13.74
2023-04-18T16:28:49.970Z,13.61
2023-04-18T16:31:23.973Z,13.50
2023-04-18T16:33:54.022Z,13.42
2023-04-18T16:36:22.641Z,13.35
2023-04-18T16:38:51.447Z,13.26
2023-04-18T16:41:22.652Z,13.14
2023-04-18T16:43:51.517Z,12.98
2023-04-18T16:46:22.079Z,12.75
2023-04-18T16:48:52.371Z,12.70
2023-04-18T16:51:20.960Z,12.59
2023-04-18T16:53:49.325Z,12.49
2023-04-18T16:56:18.872Z,12.41
2023-04-18T16:58:53.687Z,12.43
2023-04-18T17:01:22.563Z,12.42
2023-04-18T17:03:51.644Z,12.38
2023-04-18T17:06:23.207Z,12.32
2023-04-18T17:08:53.650Z,12.19
2023-04-18T17:11:22.073Z,12.12
2023-04-18T17:13:51.446Z,12.06
2023-04-18T17:16:20.256Z,11.94
2023-04-18T17:18:48.817Z,11.87
2023-04-18T17:21:17.713Z,11.78
2023-04-18T17:23:46.110Z,11.79
2023-04-18T17:26:14.734Z,11.70
2023-04-18T17:28:43.526Z,11.58
2023-04-18T17:31:16.084Z,11.46
2023-04-18T17:34:08.216Z,11.45
2023-04-18T17:36:59.673Z,11.38
2023-04-18T17:39:33.738Z,11.25
2023-04-18T17:42:02.434Z,11.24
2023-04-18T17:44:33.730Z,11.13
2023-04-18T17:47:07.120Z,11.09
2023-04-18T17:49:36.649Z,11.09
2023-04-18T17:52:06.108Z,11.01
2023-04-18T17:54:39.007Z,10.91
2023-04-18T17:57:15.591Z,10.86
2023-04-18T18:00:18.305Z,10.79
2023-04-18T18:02:48.113Z,10.66
2023-04-18T18:05:24.154Z,10.56
2023-04-18T18:08:02.416Z,10.52
2023-04-18T18:10:32.797Z,10.43
2023-04-18T18:13:04.847Z,10.37
2023-04-18T18:15:33.110Z,10.33
2023-04-18T18:18:02.435Z,10.31
2023-04-18T18:20:31.112Z,10.31
2023-04-18T18:23:06.003Z,10.20
2023-04-18T18:25:41.186Z,10.19
2023-04-18T18:28:14.098Z,10.19
2023-04-18T18:30:46.340Z,10.16
2023-04-18T18:33:15.088Z,10.11
2023-04-18T18:35:46.978Z,10.14
2023-04-18T18:38:16.174Z,10.11
2023-04-18T18:40:45.318Z,10.09
2023-04-18T18:43:14.004Z,10.04
2023-04-18T18:45:42.318Z,10.01
2023-04-18T18:48:10.900Z,9.96
2023-04-18T18:50:41.176Z,9.90
2023-04-18T18:53:10.662Z,9.84
2023-04-18T18:55:39.004Z,9.73
2023-04-18T18:58:08.461Z,9.70
2023-04-18T19:00:36.871Z,9.65
2023-04-18T19:03:06.056Z,9.60
2023-04-18T19:05:34.546Z,9.58
2023-04-18T19:08:06.658Z,9.53
2023-04-18T19:10:35.076Z,9.47
2023-04-18T19:13:03.955Z,9.41
2023-04-18T19:15:32.111Z,9.34
2023-04-18T19:18:06.861Z,9.35
2023-04-18T19:20:35.110Z,9.30
2023-04-18T19:23:03.391Z,9.25
2023-04-18T19:25:31.530Z,9.19
2023-04-18T19:27:59.506Z,9.15
2023-04-18T19:30:27.621Z,9.13
2023-04-18T19:32:55.590Z,9.11
2023-04-18T19:35:23.737Z,9.08
2023-04-18T19:37:51.848Z,9.00
2023-04-18T19:40:20.176Z,8.96
2023-04-18T19:42:48.058Z,8.88
2023-04-18T19:45:16.128Z,8.82
2023-04-18T19:47:45.073Z,8.75
2023-04-18T19:50:13.409Z,8.67
2023-04-18T19:52:41.529Z,8.61
2023-04-18T19:55:10.081Z,8.57
2023-04-18T19:57:40.008Z,8.50
2023-04-18T20:00:09.385Z,8.42
2023-04-18T20:02:42.309Z,8.39
2023-04-18T20:05:11.492Z,8.36
2023-04-18T20:07:39.800Z,8.30
2023-04-18T20:10:09.234Z,8.23
2023-04-18T20:12:37.424Z,8.18
2023-04-18T20:15:06.072Z,8.16
2023-04-18T20:17:34.932Z,8.11
2023-04-18T20:20:04.808Z,8.08
2023-04-18T20:22:32.800Z,8.00
2023-04-18T20:25:01.748Z,7.96
2023-04-18T20:27:32.471Z,7.90
2023-04-18T20:30:00.499Z,7.86
2023-04-18T20:32:28.645Z,7.79
2023-04-18T20:34:58.978Z,7.71
2023-04-18T20:37:27.789Z,7.64
2023-04-18T20:40:00.261Z,7.60
2023-04-18T20:42:28.463Z,7.53
2023-04-18T20:44:59.000Z,7.50
2023-04-18T20:47:27.998Z,7.46
2023-04-18T20:49:56.730Z,7.33
2023-04-18T20:52:24.705Z,7.27
2023-04-18T20:54:52.722Z,7.18
2023-04-18T20:57:20.782Z,7.11
2023-04-18T20:59:48.810Z,7.03
2023-04-18T21:02:16.914Z,6.96
2023-04-18T21:04:47.108Z,6.92
2023-04-18T21:07:16.910Z,6.87
2023-04-18T21:09:45.065Z,6.80
2023-04-18T21:12:13.583Z,6.73
2023-04-18T21:14:41.618Z,6.68
2023-04-18T21:17:11.063Z,6.61
2023-04-18T21:19:39.037Z,6.56
2023-04-18T21:22:07.163Z,6.50
2023-04-18T21:24:35.371Z,6.43
2023-04-18T21:27:03.442Z,6.35
2023-04-18T21:29:31.514Z,6.32
2023-04-18T21:31:59.544Z,6.24
2023-04-18T21:34:27.553Z,6.18
2023-04-18T21:36:55.583Z,6.12
2023-04-18T21:39:23.562Z,6.08
2023-04-18T21:41:51.767Z,6.06
2023-04-18T21:44:19.985Z,6.03
2023-04-18T21:46:47.952Z,6.02
2023-04-18T21:49:16.161Z,6.00
2023-04-18T21:51:45.155Z,5.98
2023-04-18T21:54:15.287Z,6.00
2023-04-18T21:56:47.536Z,5.97
2023-04-18T21:59:15.577Z,5.94
2023-04-18T22:01:44.074Z,5.91
2023-04-18T22:04:12.451Z,5.88
2023-04-18T22:06:41.774Z,5.82
2023-04-18T22:09:09.842Z,5.77
2023-04-18T22:11:38.802Z,5.73
2023-04-18T22:14:07.148Z,5.70
2023-04-18T22:16:35.373Z,5.67
2023-04-18T22:19:04.552Z,5.61
2023-04-18T22:21:32.700Z,5.60
2023-04-18T22:24:00.713Z,5.58
2023-04-18T22:26:28.844Z,5.57
2023-04-18T22:28:56.907Z,5.55
2023-04-18T22:31:25.232Z,5.51
2023-04-18T22:33:53.538Z,5.49
2023-04-18T22:36:23.879Z,5.49
2023-04-18T22:38:51.840Z,5.47
2023-04-18T22:41:19.850Z,5.48
2023-04-18T22:43:47.904Z,5.50
2023-04-18T22:46:16.027Z,5.49
2023-04-18T22:48:45.079Z,5.47
2023-04-18T22:51:14.947Z,5.46
2023-04-18T22:53:44.085Z,5.43
2023-04-18T22:56:14.141Z,5.41
2023-04-18T22:58:42.287Z,5.40
2023-04-18T23:01:10.748Z,5.39
2023-04-18T23:03:41.860Z,5.34
2023-04-18T23:06:10.053Z,5.29
2023-04-18T23:08:38.066Z,5.25
2023-04-18T23:11:06.150Z,5.21
2023-04-18T23:13:34.168Z,5.15
2023-04-18T23:16:02.202Z,5.11
2023-04-18T23:18:30.332Z,5.08
2023-04-18T23:20:59.900Z,5.02
2023-04-18T23:23:27.875Z,4.97
2023-04-18T23:25:55.849Z,4.90
2023-04-18T23:28:23.990Z,4.84
2023-04-18T23:30:52.691Z,4.78
2023-04-18T23:33:20.666Z,4.69
2023-04-18T23:35:48.627Z,4.63
2023-04-18T23:38:16.620Z,4.56
2023-04-18T23:40:44.493Z,4.48
2023-04-18T23:43:12.475Z,4.40
2023-04-18T23:45:40.443Z,4.28
2023-04-18T23:48:08.387Z,4.19
2023-04-18T23:50:36.481Z,4.09
2023-04-18T23:53:04.616Z,4.00
2023-04-18T23:55:32.578Z,3.91
2023-04-18T23:58:00.844Z,3.83
